Time;durP1;ratioP1;P1;durP2;ratioP2;P2;SDS_P1;SDS_P2;PMS_P1;PMS_P2;Temp;Humidity;BMP_temperature;BMP_pressure;BME280_temperature;BME280_humidity;BME280_pressure;Samples;Min_cycle;Max_cycle;Signal;HPM_P1;HPM_P2
2022/08/25 00:00:43;;;;;;;;;24.50;21.75;;;;;28.04;37.57;100910.06;5077553;27;45393;-70
2022/08/25 00:03:10;;;;;;;;;19.33;17.67;;;;;28.02;37.35;100906.50;5074767;28;45507;-70
2022/08/25 00:05:35;;;;;;;;;24.67;22.00;;;;;27.93;37.41;100894.06;5084565;28;45359;-70
2022/08/25 00:08:04;;;;;;;;;15.67;14.00;;;;;28.06;37.41;100919.09;5072515;28;50590;-70
2022/08/25 00:10:33;;;;;;;;;17.67;13.33;;;;;28.05;37.34;100916.44;5083057;27;45496;-70
2022/08/25 00:12:59;;;;;;;;;21.00;15.33;;;;;28.00;37.38;100918.47;5086718;28;45125;-70
2022/08/25 00:15:25;;;;;;;;;17.00;13.67;;;;;28.04;37.44;100932.03;5092161;28;45083;-70
2022/08/25 00:17:51;;;;;;;;;19.00;15.00;;;;;28.03;37.23;100919.28;5081204;28;45455;-70
2022/08/25 00:20:16;;;;;;;;;13.00;11.33;;;;;27.85;37.40;100900.78;5087597;28;45275;-70
2022/08/25 00:22:41;;;;;;;;;23.33;16.67;;;;;28.02;37.50;100916.59;5082199;28;45551;-69
2022/08/25 00:25:08;;;;;;;;;17.33;13.67;;;;;28.00;37.17;100907.50;5074073;27;45436;-70
2022/08/25 00:27:34;;;;;;;;;17.00;12.00;;;;;27.98;37.64;100906.69;5078514;27;45264;-70
2022/08/25 00:30:00;;;;;;;;;13.33;12.33;;;;;27.97;37.83;100902.13;5090125;28;45499;-70
2022/08/25 00:32:26;;;;;;;;;20.67;14.33;;;;;27.84;37.50;100883.44;5082357;28;45329;-70
2022/08/25 00:34:52;;;;;;;;;15.33;14.33;;;;;27.94;37.26;100900.44;5077826;27;45446;-71
2022/08/25 00:37:18;;;;;;;;;16.33;14.33;;;;;27.93;37.19;100901.38;5077156;28;47249;-71
2022/08/25 00:39:44;;;;;;;;;13.67;13.33;;;;;27.92;37.74;100894.09;5085763;27;44889;-71
2022/08/25 00:42:09;;;;;;;;;14.33;13.00;;;;;27.87;37.58;100890.66;5082233;27;45447;-70
2022/08/25 00:44:35;;;;;;;;;14.33;13.67;;;;;27.87;37.66;100891.53;5086045;27;45059;-70
2022/08/25 00:47:02;;;;;;;;;14.00;14.00;;;;;27.79;37.74;100871.75;5088290;27;45384;-71
2022/08/25 00:49:32;;;;;;;;;17.33;13.67;;;;;27.88;37.43;100884.19;5083758;28;45624;-70
2022/08/25 00:51:59;;;;;;;;;16.33;14.00;;;;;27.87;37.63;100896.16;5077080;28;45487;-70
2022/08/25 00:54:30;;;;;;;;;15.00;14.00;;;;;27.85;37.80;100887.06;5079477;27;45480;-70
2022/08/25 00:56:58;;;;;;;;;17.67;14.67;;;;;27.84;37.41;100885.28;5076699;28;45682;-70
2022/08/25 00:59:25;;;;;;;;;21.00;16.67;;;;;27.82;37.87;100876.22;5075989;27;45481;-70
2022/08/25 01:01:52;;;;;;;;;10.33;10.33;;;;;27.80;37.91;100878.13;5076368;28;45495;-70
2022/08/25 01:04:18;;;;;;;;;13.00;11.67;;;;;27.81;37.69;100886.31;5076660;27;45409;-70
2022/08/25 01:06:44;;;;;;;;;16.33;14.67;;;;;27.81;38.05;100882.69;5072465;27;47459;-71
2022/08/25 01:09:12;;;;;;;;;16.00;16.00;;;;;27.77;38.20;100891.03;5073307;28;45649;-70
2022/08/25 01:11:38;;;;;;;;;19.33;14.33;;;;;27.72;38.37;100886.72;5072742;28;45322;-69
2022/08/25 01:14:05;;;;;;;;;14.33;12.33;;;;;27.73;38.50;100892.13;5073555;27;45587;-71
2022/08/25 01:16:35;;;;;;;;;13.33;12.00;;;;;27.70;38.18;100891.38;5086057;28;46280;-71
2022/08/25 01:19:00;;;;;;;;;13.00;13.00;;;;;27.68;38.25;100890.53;5083712;28;45369;-70
2022/08/25 01:21:28;;;;;;;;;12.00;12.00;;;;;27.65;38.60;100893.41;5079776;27;45324;-71
2022/08/25 01:23:57;;;;;;;;;14.00;12.33;;;;;27.56;38.61;100890.09;5086635;27;45213;-71
2022/08/25 01:26:26;;;;;;;;;10.67;10.67;;;;;27.62;38.69;100890.78;5089163;27;45751;-69
2022/08/25 01:31:37;;;;;;;;;11.33;11.33;;;;;27.56;39.12;100887.34;5083756;28;44889;-71
2022/08/25 01:34:05;;;;;;;;;16.33;15.33;;;;;27.53;38.90;100889.34;5081631;27;45351;-70
2022/08/25 01:36:31;;;;;;;;;14.67;13.33;;;;;27.50;38.94;100882.13;5075080;28;45839;-70
2022/08/25 01:38:56;;;;;;;;;12.33;12.00;;;;;27.41;39.11;100870.66;5087840;27;45039;-71
2022/08/25 01:41:30;;;;;;;;;15.33;13.33;;;;;27.46;39.25;100887.81;5085885;28;46020;-70
2022/08/25 01:43:55;;;;;;;;;14.67;11.67;;;;;27.46;39.31;100893.31;5090564;27;45673;-70
2022/08/25 01:46:21;;;;;;;;;16.67;13.67;;;;;27.46;39.24;100898.81;5083004;28;48198;-70
2022/08/25 01:48:46;;;;;;;;;14.33;14.33;;;;;27.45;39.19;100888.78;5087806;27;46417;-69
2022/08/25 01:51:14;;;;;;;;;15.67;14.67;;;;;27.28;39.35;100864.75;5075968;27;45663;-70
2022/08/25 01:53:40;;;;;;;;;18.33;14.00;;;;;27.19;39.57;100850.47;5074461;28;45696;-69
2022/08/25 01:56:14;;;;;;;;;13.67;13.00;;;;;27.30;39.39;100874.72;5081117;27;45406;-69
2022/08/25 01:58:43;;;;;;;;;16.33;14.00;;;;;27.37;39.08;100875.38;5075441;28;45573;-70
2022/08/25 02:01:15;;;;;;;;;16.67;14.67;;;;;27.36;39.35;100876.34;5075676;27;46219;-69
2022/08/25 02:03:42;;;;;;;;;12.33;9.67;;;;;27.34;38.91;100884.63;5076375;28;45587;-70
2022/08/25 02:06:11;;;;;;;;;11.33;11.33;;;;;27.33;38.75;100870.97;5075205;27;46228;-70
2022/08/25 02:08:37;;;;;;;;;11.33;11.00;;;;;27.32;38.69;100867.34;5078504;28;45530;-70
2022/08/25 02:11:03;;;;;;;;;12.67;11.67;;;;;27.26;38.30;100862.06;5079054;27;45782;-71
2022/08/25 02:13:28;;;;;;;;;16.67;14.00;;;;;27.27;39.00;100855.59;5078169;27;45383;-70
2022/08/25 02:15:57;;;;;;;;;13.00;11.00;;;;;27.26;38.20;100851.09;5076207;27;46149;-71
2022/08/25 02:18:23;;;;;;;;;12.33;12.33;;;;;27.27;38.01;100854.72;5079688;28;45481;-70
2022/08/25 02:20:48;;;;;;;;;15.67;12.67;;;;;27.13;38.41;100833.38;5075669;27;45372;-71
2022/08/25 02:23:14;;;;;;;;;16.33;13.33;;;;;27.24;38.21;100847.53;5080764;27;45467;-69
2022/08/25 02:25:41;;;;;;;;;12.33;11.33;;;;;26.91;38.13;100793.13;5090503;28;45510;-71
2022/08/25 02:28:07;;;;;;;;;9.67;9.67;;;;;27.23;38.25;100850.34;5086127;27;45365;-70
2022/08/25 02:30:33;;;;;;;;;9.67;8.67;;;;;27.16;38.17;100833.25;5076281;28;45299;-71
2022/08/25 02:32:59;;;;;;;;;12.67;11.33;;;;;27.06;38.14;100809.88;5079420;28;45441;-71
2022/08/25 02:35:24;;;;;;;;;11.33;11.33;;;;;27.18;38.39;100826.72;5088686;28;45464;-70
2022/08/25 02:37:51;;;;;;;;;13.00;11.00;;;;;27.19;38.45;100820.28;5078531;28;52382;-71
2022/08/25 02:40:17;;;;;;;;;10.67;10.33;;;;;27.00;38.63;100791.84;5087218;27;45064;-71
2022/08/25 02:42:43;;;;;;;;;11.67;11.67;;;;;27.04;38.80;100801.72;5093992;28;45146;-71
2022/08/25 02:45:09;;;;;;;;;14.00;14.00;;;;;27.06;38.96;100804.38;5092617;28;45780;-70
2022/08/25 02:47:35;;;;;;;;;15.33;12.67;;;;;26.87;39.33;100777.75;5088732;27;46371;-70
2022/08/25 02:50:03;;;;;;;;;11.00;11.00;;;;;27.10;39.11;100823.41;5090314;28;45605;-71
2022/08/25 02:52:28;;;;;;;;;13.33;12.67;;;;;27.09;39.39;100823.47;5091309;27;45107;-71
2022/08/25 02:54:54;;;;;;;;;14.00;11.67;;;;;27.07;39.18;100825.38;5078222;28;56762;-70
2022/08/25 02:57:20;;;;;;;;;11.33;11.33;;;;;26.90;39.50;100790.44;5083303;27;45440;-71
2022/08/25 02:59:47;;;;;;;;;11.00;11.00;;;;;26.87;39.86;100791.44;5085314;28;45347;-71
2022/08/25 03:02:13;;;;;;;;;15.00;12.67;;;;;27.00;39.39;100811.03;5090599;27;45143;-71
2022/08/25 03:04:38;;;;;;;;;12.33;11.00;;;;;26.99;39.52;100820.19;5084758;27;45401;-71
2022/08/25 03:07:04;;;;;;;;;10.67;10.33;;;;;26.62;39.43;100748.56;5085235;28;47392;-71
2022/08/25 03:09:30;;;;;;;;;10.67;10.67;;;;;26.84;39.55;100788.81;5080314;28;45407;-71
2022/08/25 03:11:55;;;;;;;;;12.33;12.33;;;;;26.87;39.47;100791.44;5084208;27;45639;-71
2022/08/25 03:14:21;;;;;;;;;14.67;12.33;;;;;26.93;39.43;100809.50;5080288;28;58136;-71
2022/08/25 03:16:46;;;;;;;;;17.00;16.00;;;;;26.88;39.54;100814.25;5082115;28;45614;-70
2022/08/25 03:19:11;;;;;;;;;12.67;10.67;;;;;26.87;39.56;100813.38;5084931;27;45471;-69
2022/08/25 03:21:37;;;;;;;;;14.00;13.33;;;;;26.85;39.45;100816.19;5085152;28;45342;-69
2022/08/25 03:24:04;;;;;;;;;15.33;15.33;;;;;26.83;39.67;100806.25;5083427;28;46215;-69
2022/08/25 03:29:14;;;;;;;;;12.33;12.00;;;;;26.74;40.00;100784.69;5074514;28;45441;-70
2022/08/25 03:31:42;;;;;;;;;10.00;10.00;;;;;26.78;40.19;100791.84;5083617;27;45555;-70
2022/08/25 03:34:08;;;;;;;;;16.33;13.33;;;;;26.76;40.42;100791.91;5088949;28;47264;-69
2022/08/25 03:36:33;;;;;;;;;11.00;10.67;;;;;26.72;40.26;100784.75;5081275;28;45137;-70
2022/08/25 03:38:58;;;;;;;;;11.33;11.33;;;;;26.66;40.12;100772.19;5075124;27;45475;-68
2022/08/25 03:41:27;;;;;;;;;11.67;11.00;;;;;26.67;39.97;100762.09;5079968;27;45676;-69
2022/08/25 03:43:53;;;;;;;;;13.33;11.00;;;;;26.64;40.13;100754.00;5074379;27;46202;-69
2022/08/25 03:46:22;;;;;;;;;15.33;12.33;;;;;26.64;39.76;100754.00;5067747;27;45458;-69
2022/08/25 03:48:48;;;;;;;;;15.00;12.67;;;;;26.63;39.88;100764.09;5086371;27;45322;-70
2022/08/25 03:51:27;;;;;;;;;10.00;10.00;;;;;26.61;39.39;100765.97;5089627;28;45336;-70
2022/08/25 03:53:52;;;;;;;;;12.00;10.67;;;;;26.58;40.07;100756.94;5078267;28;45427;-70
2022/08/25 03:56:19;;;;;;;;;10.33;10.00;;;;;26.55;40.08;100760.72;5087830;27;45131;-70
2022/08/25 03:58:45;;;;;;;;;12.67;11.00;;;;;26.54;39.92;100764.41;5087967;27;45089;-70
2022/08/25 04:01:11;;;;;;;;;13.33;11.00;;;;;26.52;40.08;100765.44;5074458;28;45683;-69
2022/08/25 04:03:36;;;;;;;;;11.67;11.67;;;;;26.50;40.00;100768.25;5073844;27;45585;-69
2022/08/25 04:06:04;;;;;;;;;11.00;9.67;;;;;26.49;40.22;100780.16;5072815;28;45992;-69
2022/08/25 04:08:29;;;;;;;;;13.67;12.33;;;;;26.10;39.93;100706.78;5082470;28;45219;-71
2022/08/25 04:10:54;;;;;;;;;11.00;11.00;;;;;26.45;40.23;100784.84;5076757;27;45366;-69
2022/08/25 04:13:20;;;;;;;;;10.00;10.00;;;;;26.51;39.56;100791.94;5073748;28;52227;-71
2022/08/25 04:15:45;;;;;;;;;12.67;12.67;;;;;26.36;40.08;100760.53;5073704;28;46383;-71
2022/08/25 04:18:12;;;;;;;;;18.00;13.67;;;;;26.47;39.53;100784.81;5073546;28;45538;-70
2022/08/25 04:20:37;;;;;;;;;16.33;14.67;;;;;26.31;39.65;100768.06;5073610;28;45415;-70
2022/08/25 04:23:03;;;;;;;;;10.00;10.00;;;;;26.40;39.86;100780.50;5080681;27;46249;-69
2022/08/25 04:25:28;;;;;;;;;14.00;11.00;;;;;26.38;39.84;100782.41;5070364;28;45540;-70
2022/08/25 04:27:54;;;;;;;;;11.33;11.00;;;;;26.38;39.97;100793.38;5075741;28;45530;-70
2022/08/25 04:30:20;;;;;;;;;15.67;13.67;;;;;26.30;39.99;100789.09;5091962;27;46566;-71
2022/08/25 04:32:47;;;;;;;;;8.67;8.67;;;;;25.92;40.19;100717.47;5091410;28;45265;-69
2022/08/25 04:35:13;;;;;;;;;11.33;11.33;;;;;26.36;39.80;100792.53;5074633;28;45275;-68
2022/08/25 04:37:38;;;;;;;;;13.33;12.33;;;;;26.00;40.36;100730.00;5083909;28;45286;-70
2022/08/25 04:40:05;;;;;;;;;12.33;12.33;;;;;26.34;40.03;100795.34;5076681;27;45360;-70
2022/08/25 04:42:30;;;;;;;;;9.33;9.33;;;;;26.26;39.37;100787.41;5073486;28;47484;-71
2022/08/25 04:44:56;;;;;;;;;13.33;11.67;;;;;26.32;39.03;100799.97;5083910;27;45231;-70
2022/08/25 04:47:22;;;;;;;;;14.33;14.33;;;;;26.33;39.37;100807.22;5075288;27;45841;-69
2022/08/25 04:49:47;;;;;;;;;15.33;12.00;;;;;26.34;38.84;100810.88;5078970;28;45557;-70
2022/08/25 04:52:13;;;;;;;;;11.00;9.67;;;;;26.30;38.56;100811.00;5073323;27;46514;-70
2022/08/25 04:54:39;;;;;;;;;16.33;11.00;;;;;26.29;38.58;100813.78;5077790;28;45475;-71
2022/08/25 04:57:04;;;;;;;;;13.67;10.67;;;;;26.34;38.62;100816.38;5072679;28;45519;-71
2022/08/25 04:59:30;;;;;;;;;11.00;11.00;;;;;26.35;38.29;100830.00;5073405;28;45570;-71
2022/08/25 05:01:57;;;;;;;;;10.33;9.00;;;;;25.91;38.24;100743.06;5072065;28;46296;-71
2022/08/25 05:04:22;;;;;;;;;11.33;10.00;;;;;26.33;38.14;100818.19;5072217;28;45462;-71
2022/08/25 05:06:48;;;;;;;;;12.33;9.33;;;;;26.33;39.20;100831.88;5076417;28;45352;-70
2022/08/25 05:09:13;;;;;;;;;11.33;11.33;;;;;26.23;39.85;100820.41;5078008;28;45457;-70
2022/08/25 05:11:39;;;;;;;;;16.00;12.67;;;;;26.24;39.88;100829.50;5072798;28;45483;-70
2022/08/25 05:14:10;;;;;;;;;17.67;13.33;;;;;26.23;40.27;100836.84;5073213;28;45439;-70
2022/08/25 05:16:35;;;;;;;;;15.67;11.67;;;;;26.28;40.52;100844.84;5079938;28;45678;-70
2022/08/25 05:19:00;;;;;;;;;11.00;9.00;;;;;26.28;40.65;100848.53;5080430;28;45365;-69
2022/08/25 05:21:27;;;;;;;;;15.67;12.00;;;;;26.27;40.88;100856.78;5075882;28;45548;-71
2022/08/25 05:23:56;;;;;;;;;16.67;12.33;;;;;26.19;40.93;100843.38;5073664;27;45396;-71
2022/08/25 05:26:22;;;;;;;;;12.00;12.00;;;;;26.17;41.31;100845.28;5073626;27;45328;-69
2022/08/25 05:28:50;;;;;;;;;14.67;11.67;;;;;26.21;41.28;100860.63;5074848;28;45506;-71
2022/08/25 05:31:16;;;;;;;;;19.67;17.67;;;;;26.20;41.65;100853.38;5072616;28;46310;-70
2022/08/25 05:33:41;;;;;;;;;14.33;13.00;;;;;26.20;41.21;100861.59;5070335;28;45637;-71
2022/08/25 05:36:08;;;;;;;;;15.00;12.67;;;;;26.18;41.22;100865.34;5073307;27;45345;-70
2022/08/25 05:38:34;;;;;;;;;17.67;14.67;;;;;26.00;41.65;100843.13;5073342;27;45579;-70
2022/08/25 05:41:05;;;;;;;;;26.00;15.33;;;;;26.16;42.25;100868.13;5073266;28;45542;-70
2022/08/25 05:43:31;;;;;;;;;25.75;23.25;;;;;26.15;42.64;100865.44;5079320;27;45305;-70
2022/08/25 05:45:58;;;;;;;;;32.25;27.25;;;;;26.12;42.57;100847.31;5087265;28;45686;-70
2022/08/25 05:48:25;;;;;;;;;25.67;20.00;;;;;26.15;42.45;100858.16;5088864;28;45075;-72
2022/08/25 05:50:52;;;;;;;;;19.67;12.33;;;;;26.08;42.34;100843.75;5085152;28;45698;-70
2022/08/25 05:53:18;;;;;;;;;14.00;11.00;;;;;26.08;42.38;100840.13;5075435;27;45448;-71
2022/08/25 05:55:44;;;;;;;;;16.33;14.33;;;;;26.17;41.80;100852.56;5078314;27;45481;-71
2022/08/25 05:58:10;;;;;;;;;15.33;13.67;;;;;26.18;42.23;100859.84;5076497;28;45302;-70
2022/08/25 06:00:37;;;;;;;;;19.67;16.67;;;;;26.17;42.33;100856.22;5083271;27;46338;-70
2022/08/25 06:03:02;;;;;;;;;16.67;13.33;;;;;26.09;42.26;100839.19;5080364;27;45330;-70
2022/08/25 06:05:28;;;;;;;;;19.33;13.33;;;;;26.17;41.74;100852.56;5082610;27;45208;-70
2022/08/25 06:07:54;;;;;;;;;16.00;16.00;;;;;26.13;41.92;100849.06;5070902;27;45602;-69
2022/08/25 06:10:20;;;;;;;;;18.33;16.67;;;;;26.20;41.48;100853.38;5077661;27;45449;-71
2022/08/25 06:12:47;;;;;;;;;18.67;16.67;;;;;26.20;41.31;100847.00;5077289;28;45348;-69
2022/08/25 06:15:18;;;;;;;;;16.00;14.00;;;;;26.13;41.41;100835.38;5082469;28;45415;-69
2022/08/25 06:17:44;;;;;;;;;18.33;12.67;;;;;26.08;41.14;100830.06;5090235;27;45257;-70
2022/08/25 06:20:13;;;;;;;;;17.67;14.00;;;;;26.24;41.16;100851.41;5090006;28;45645;-70
2022/08/25 06:22:39;;;;;;;;;8.33;8.33;;;;;26.21;40.11;100840.56;5086656;27;45468;-70
2022/08/25 06:25:06;;;;;;;;;12.00;11.00;;;;;26.22;39.76;100848.75;5085359;27;45390;-69
2022/08/25 06:27:33;;;;;;;;;7.67;7.67;;;;;26.19;38.87;100848.84;5098700;27;45717;-70
2022/08/25 06:30:02;;;;;;;;;19.33;15.67;;;;;26.02;38.70;100822.09;5093996;28;45886;-70
2022/08/25 06:32:30;;;;;;;;;9.33;9.33;;;;;25.94;38.08;100797.69;5085006;28;45446;-70
2022/08/25 06:34:57;;;;;;;;;10.33;9.00;;;;;26.18;37.36;100844.31;5084316;27;45468;-70
2022/08/25 06:37:22;;;;;;;;;14.67;11.00;;;;;26.20;37.37;100845.16;5078168;28;45329;-70
2022/08/25 06:39:48;;;;;;;;;17.33;12.67;;;;;26.19;37.61;100828.78;5091610;28;63442;-70
2022/08/25 06:42:13;;;;;;;;;14.00;10.00;;;;;26.20;36.94;100845.16;5089996;28;45675;-69
2022/08/25 06:44:39;;;;;;;;;14.00;12.67;;;;;26.24;36.34;100840.47;5092255;27;45327;-70
2022/08/25 06:47:05;;;;;;;;;14.33;11.67;;;;;26.30;36.03;100849.34;5089060;28;45522;-70
2022/08/25 06:49:30;;;;;;;;;9.67;7.67;;;;;26.28;35.98;100843.03;5087228;28;45998;-70
2022/08/25 06:51:55;;;;;;;;;9.00;9.00;;;;;26.27;35.35;100851.31;5084753;28;45331;-71
2022/08/25 06:54:21;;;;;;;;;9.00;8.00;;;;;26.27;35.62;100854.94;5080602;28;45306;-70
2022/08/25 06:56:46;;;;;;;;;14.00;14.00;;;;;26.29;35.71;100853.03;5079314;27;45612;-70
2022/08/25 06:59:12;;;;;;;;;12.67;9.67;;;;;26.30;35.72;100843.88;5083869;27;45789;-70
2022/08/25 07:01:37;;;;;;;;;11.00;9.33;;;;;26.39;35.75;100858.16;5086947;27;45492;-71
2022/08/25 07:04:05;;;;;;;;;11.33;9.33;;;;;26.37;35.07;100855.50;5091172;28;45149;-70
2022/08/25 07:06:34;;;;;;;;;9.67;9.67;;;;;26.38;35.03;100859.09;5089083;28;45191;-71
2022/08/25 07:09:00;;;;;;;;;10.00;9.00;;;;;26.37;35.25;100855.50;5077222;28;45625;-71
2022/08/25 07:11:26;;;;;;;;;10.67;10.00;;;;;26.40;35.01;100860.84;5085440;27;45395;-70
2022/08/25 07:13:51;;;;;;;;;8.00;7.00;;;;;26.36;35.09;100844.59;5081989;27;45498;-69
2022/08/25 07:16:19;;;;;;;;;7.00;7.00;;;;;26.49;34.85;100860.47;5074525;27;45452;-69
2022/08/25 07:18:46;;;;;;;;;9.67;9.33;;;;;26.54;35.03;100846.63;5074638;27;46182;-67
2022/08/25 07:21:13;;;;;;;;;8.33;8.33;;;;;26.52;35.04;100850.38;5071028;27;46122;-69
2022/08/25 07:23:40;;;;;;;;;9.67;9.00;;;;;26.62;35.31;100858.16;5074794;27;45399;-68
2022/08/25 07:26:13;;;;;;;;;23.33;22.67;;;;;26.72;35.33;100860.59;5074853;27;45686;-67
2022/08/25 07:28:40;;;;;;;;;11.00;9.67;;;;;26.71;35.19;100847.84;5085552;27;46866;-69
2022/08/25 07:31:05;;;;;;;;;10.67;10.67;;;;;26.81;34.80;100861.13;5073731;28;45461;-69
2022/08/25 07:33:31;;;;;;;;;10.33;10.00;;;;;26.84;34.99;100865.59;5074047;27;45370;-69
2022/08/25 07:35:57;;;;;;;;;11.67;9.00;;;;;26.85;34.97;100864.66;5071202;27;45586;-69
2022/08/25 07:38:23;;;;;;;;;9.00;9.00;;;;;26.82;35.18;100864.75;5072926;27;45468;-69
2022/08/25 07:40:53;;;;;;;;;7.33;7.33;;;;;26.70;35.48;100844.22;5072667;27;45476;-69
2022/08/25 07:43:22;;;;;;;;;10.00;8.00;;;;;26.78;35.79;100852.16;5076798;27;45425;-69
2022/08/25 07:45:47;;;;;;;;;13.67;8.33;;;;;26.85;35.56;100864.66;5080730;28;45353;-68
2022/08/25 07:48:14;;;;;;;;;9.33;9.33;;;;;26.86;35.75;100860.97;5074448;27;56427;-69
2022/08/25 07:50:42;;;;;;;;;9.00;9.00;;;;;26.82;35.80;100840.09;5073084;28;45494;-68
2022/08/25 07:53:08;;;;;;;;;9.00;9.00;;;;;26.92;36.10;100851.59;5072840;27;45411;-70
2022/08/25 07:55:38;;;;;;;;;7.33;7.33;;;;;27.03;35.72;100857.53;5074325;28;45299;-69
2022/08/25 07:58:06;;;;;;;;;23.33;19.33;;;;;27.10;35.79;100858.19;5073217;27;46045;-70
2022/08/25 08:00:33;;;;;;;;;12.67;10.33;;;;;27.23;35.20;100861.31;5073794;28;45524;-68
2022/08/25 08:03:08;;;;;;;;;13.00;12.00;;;;;27.18;35.56;100845.03;5074390;27;45470;-68
2022/08/25 08:05:36;;;;;;;;;13.00;11.00;;;;;27.20;35.23;100826.66;5073539;28;45518;-68
2022/08/25 08:08:01;;;;;;;;;13.00;10.00;;;;;27.27;34.68;100830.91;5067171;28;47155;-68
2022/08/25 08:10:27;;;;;;;;;14.67;13.00;;;;;27.52;35.01;100841.81;5072713;27;45379;-69
2022/08/25 08:12:52;;;;;;;;;9.67;9.33;;;;;27.71;34.22;100846.50;5074462;27;45466;-68
2022/08/25 08:15:18;;;;;;;;;12.33;10.00;;;;;27.80;33.89;100848.84;5074348;28;45507;-68
2022/08/25 08:17:45;;;;;;;;;14.33;11.00;;;;;27.94;34.39;100854.63;5073840;27;46273;-69
2022/08/25 08:20:12;;;;;;;;;14.67;11.00;;;;;28.08;33.67;100850.38;5074045;28;45410;-68
2022/08/25 08:22:40;;;;;;;;;12.00;12.00;;;;;28.18;32.86;100859.09;5073778;28;45370;-69
2022/08/25 08:25:07;;;;;;;;;16.67;13.67;;;;;28.28;33.83;100863.22;5074034;27;45523;-69
2022/08/25 08:27:33;;;;;;;;;19.67;15.33;;;;;28.28;33.26;100842.13;5073381;27;46970;-66
2022/08/25 08:29:59;;;;;;;;;11.67;11.67;;;;;28.45;32.75;100868.81;5073731;28;45656;-68
2022/08/25 08:32:24;;;;;;;;;15.00;10.00;;;;;28.49;32.50;100891.56;5073752;28;45462;-68
2022/08/25 08:34:50;;;;;;;;;22.75;20.25;;;;;28.52;33.11;100896.03;5073606;27;45411;-68
2022/08/25 08:37:15;;;;;;;;;11.33;11.33;;;;;28.52;32.68;100877.66;5073206;27;45776;-69
2022/08/25 08:39:41;;;;;;;;;13.00;11.33;;;;;28.63;32.82;100857.97;5073489;27;45514;-69
2022/08/25 08:42:18;;;;;;;;;10.00;9.33;;;;;28.77;32.69;100862.81;5073494;27;45477;-69
2022/08/25 08:44:49;;;;;;;;;11.33;10.00;;;;;28.88;32.19;100867.81;5074125;27;45510;-68
2022/08/25 08:47:32;;;;;;;;;10.33;10.00;;;;;29.01;32.15;100874.50;5073075;27;46117;-68
2022/08/25 08:50:32;;;;;;;;;12.67;10.00;;;;;29.10;32.11;100857.50;5066862;28;45467;-67
2022/08/25 08:53:04;;;;;;;;;12.67;11.33;;;;;29.07;31.71;100854.91;5072981;28;45333;-67
2022/08/25 08:55:32;;;;;;;;;11.33;9.33;;;;;29.11;31.67;100863.94;5073854;28;45418;-68
2022/08/25 08:58:15;;;;;;;;;6.67;5.67;;;;;29.09;31.63;100865.84;5073302;27;46086;-66
2022/08/25 09:00:46;;;;;;;;;7.33;7.33;;;;;29.08;31.58;100869.56;5066831;28;45255;-68
2022/08/25 09:03:25;;;;;;;;;11.00;9.67;;;;;29.10;31.32;100867.63;5073639;27;45262;-71
2022/08/25 09:05:55;;;;;;;;;12.33;11.33;;;;;29.08;31.52;100886.09;5073850;27;45447;-67
2022/08/25 09:08:21;;;;;;;;;11.67;10.33;;;;;28.98;32.33;100869.13;5068807;28;46883;-68
2022/08/25 09:11:13;;;;;;;;;14.00;12.00;;;;;29.12;33.07;100891.38;5072618;27;45344;-68
2022/08/25 09:13:56;;;;;;;;;11.00;10.67;;;;;29.20;33.40;100880.00;5072196;28;45421;-67
2022/08/25 09:16:58;;;;;;;;;15.00;11.67;;;;;29.21;34.20;100882.69;5069735;28;45515;-68
2022/08/25 09:19:48;;;;;;;;;13.33;11.33;;;;;29.38;35.15;100886.44;5072063;28;45558;-67
2022/08/25 09:22:14;;;;;;;;;13.00;13.00;;;;;29.43;34.48;100867.84;5068340;28;45484;-70
2022/08/25 09:25:01;;;;;;;;;15.67;14.33;;;;;29.39;34.70;100877.22;5072901;28;46286;-70
2022/08/25 09:27:57;;;;;;;;;20.00;16.00;;;;;29.50;35.41;100888.59;5072996;28;45458;-68
2022/08/25 09:30:23;;;;;;;;;23.75;22.25;;;;;29.53;35.24;100858.16;5072488;28;46296;-68
2022/08/25 09:33:00;;;;;;;;;12.00;11.00;;;;;29.69;34.86;100879.41;5072326;27;45386;-67
2022/08/25 09:35:33;;;;;;;;;17.00;17.00;;;;;29.73;34.69;100881.91;5072579;28;45438;-69
2022/08/25 09:38:03;;;;;;;;;12.33;12.00;;;;;29.64;33.38;100884.25;5073392;28;45415;-66
2022/08/25 09:40:32;;;;;;;;;11.00;10.33;;;;;29.56;33.91;100877.25;5072767;27;46802;-68
2022/08/25 09:43:01;;;;;;;;;24.00;14.33;;;;;29.52;33.64;100864.63;5072599;28;45546;-68
2022/08/25 09:45:46;;;;;;;;;13.00;10.67;;;;;29.70;33.60;100887.56;5071774;28;45675;-67
2022/08/25 09:48:27;;;;;;;;;7.67;7.67;;;;;29.79;33.22;100880.72;5072445;28;45530;-68
2022/08/25 09:50:59;;;;;;;;;15.00;13.67;;;;;29.85;33.53;100882.28;5069291;28;45494;-68
2022/08/25 09:53:25;;;;;;;;;12.67;10.67;;;;;29.93;33.63;100880.91;5072767;27;45413;-68
2022/08/25 09:56:11;;;;;;;;;14.33;12.33;;;;;30.00;33.03;100888.84;5072790;27;45853;-68
2022/08/25 09:58:36;;;;;;;;;12.67;11.33;;;;;29.94;33.36;100882.66;5072073;27;45600;-68
2022/08/25 10:01:22;;;;;;;;;13.00;11.00;;;;;29.94;33.62;100876.28;5073636;28;52585;-68
2022/08/25 10:04:02;;;;;;;;;20.67;19.33;;;;;29.89;33.57;100857.22;5076032;28;45525;-67
2022/08/25 10:06:35;;;;;;;;;12.33;11.33;;;;;30.08;33.17;100873.69;5074871;28;45496;-67
2022/08/25 10:09:05;;;;;;;;;14.67;13.00;;;;;30.11;33.11;100868.03;5076306;27;45564;-68
2022/08/25 10:11:47;;;;;;;;;15.33;14.33;;;;;29.92;32.70;100818.50;5075807;27;45397;-69
2022/08/25 10:14:21;;;;;;;;;14.00;10.33;;;;;30.35;32.34;100869.53;5075541;27;45457;-69
2022/08/25 10:16:48;;;;;;;;;9.67;9.67;;;;;30.32;32.01;100834.75;5075893;27;45560;-69
2022/08/25 10:19:27;;;;;;;;;10.33;9.00;;;;;30.51;31.48;100865.00;5075981;28;45317;-67
2022/08/25 10:22:04;;;;;;;;;9.00;9.00;;;;;30.54;32.08;100858.41;5075823;27;46408;-69
2022/08/25 10:24:29;;;;;;;;;11.00;10.00;;;;;30.58;31.65;100862.78;5075606;28;44941;-69
2022/08/25 10:27:17;;;;;;;;;9.67;9.33;;;;;30.47;31.85;100835.78;5075663;27;45740;-69
2022/08/25 10:29:58;;;;;;;;;12.00;10.33;;;;;30.63;31.75;100850.50;5071596;28;45619;-69
2022/08/25 10:32:48;;;;;;;;;10.67;9.67;;;;;30.69;31.07;100847.41;5075496;28;45531;-66
2022/08/25 10:35:25;;;;;;;;;13.33;13.33;;;;;30.68;30.87;100830.94;5075439;27;45357;-69
2022/08/25 10:38:15;;;;;;;;;10.33;8.33;;;;;30.81;30.62;100836.66;5075325;27;45693;-68
2022/08/25 10:40:53;;;;;;;;;8.33;8.33;;;;;30.86;30.46;100829.00;5075728;27;46143;-68
2022/08/25 10:43:34;;;;;;;;;10.00;8.33;;;;;30.73;30.42;100787.44;5075256;28;45515;-70
2022/08/25 10:46:19;;;;;;;;;10.33;9.00;;;;;30.90;29.90;100805.75;5073656;27;45826;-68
2022/08/25 10:49:08;;;;;;;;;11.33;9.67;;;;;31.08;30.35;100816.75;5075080;27;45564;-69
2022/08/25 10:51:36;;;;;;;;;11.00;10.33;;;;;31.14;30.06;100814.53;5072995;28;45342;-68
2022/08/25 10:54:20;;;;;;;;;12.00;9.33;;;;;31.20;29.92;100816.94;5074842;28;45507;-69
2022/08/25 10:56:52;;;;;;;;;8.00;8.00;;;;;31.20;30.09;100807.75;5069703;28;45439;-70
2022/08/25 10:59:31;;;;;;;;;49.00;36.00;;;;;31.34;29.88;100820.75;5074877;27;45391;-69
2022/08/25 11:02:18;;;;;;;;;12.67;12.67;;;;;31.38;29.94;100820.47;5075529;28;45575;-68
2022/08/25 11:05:11;;;;;;;;;10.67;10.00;;;;;31.45;29.45;100814.56;5074382;28;47293;-69
2022/08/25 11:07:43;;;;;;;;;11.67;10.00;;;;;31.33;29.73;100791.34;5070297;27;45446;-68
2022/08/25 11:10:17;;;;;;;;;13.33;12.00;;;;;31.36;29.14;100799.44;5074322;27;45297;-69
2022/08/25 11:12:53;;;;;;;;;11.00;11.00;;;;;31.50;29.27;100815.19;5074473;27;45616;-67
2022/08/25 11:15:31;;;;;;;;;13.67;11.33;;;;;31.51;29.04;100808.69;5074423;27;45514;-69
2022/08/25 11:17:59;;;;;;;;;18.67;17.33;;;;;31.58;29.42;100819.31;5074366;28;45491;-69
2022/08/25 11:20:36;;;;;;;;;10.67;9.00;;;;;31.57;28.94;100803.69;5074457;28;45313;-67
2022/08/25 11:23:13;;;;;;;;;7.67;7.67;;;;;31.64;28.58;100818.03;5067891;27;45521;-69
2022/08/25 11:25:56;;;;;;;;;8.67;8.33;;;;;31.64;28.42;100812.50;5074195;27;45453;-68